Hovedside
METAR-TAF:

METAR-TAF

Lufthavner :

Linköping lufthavn

Linköping, Sverige

breddegrad: 58-24N, lengdegrad: 015-41E, høyde over havet: 52 m

Gjeldene værobservasjon

Denne rapporten ble laget for 35 minutter siden, klokken 04:20 UTC
Vind 2 kt fra Vest-sørvest
Temperatur 9°C
Luftfuktighet 100%
Trykk 1016 hPa
Sikt 10 km eller mer
Få skyer i en høyde av 2400 ft

METAR: ESSL 160420Z 25002KT 9999 FEW024 09/09 Q1016

Tid: 06:55 (04:55 UTC)

Varsel

Denne rapporten ble laget for 1 time og 25 minutter siden, klokken 03:30 UTC
Varsel gyldig fra 16. klokken 04 UTC til 16. klokken 12 UTC
Vind 2 kt fra skiftende retning
Sikt 10 km eller mer
Få skyer i en høyde av 800 ft
Midlertidig
fra 16. klokken 04 UTC til 16. klokken 09 UTC
Sikt: 3000 m
Brutte skyer i en høyde av 500 ft
dis

TAF: ESSL 160330Z 1604/1612 VRB02KT 9999 FEW008 TEMPO 1604/1609 3000 BR BKN005

Værobservasjoner og værvarsel for over 4000 flyplasser (METAR- og TAF-rapporter).

Tilgjengelige stasjoner er representert av de røde og gule prikkene på kartet.

Hold musepekeren over prikken for å se navnet på stasjonen.

Klikk så for å se værobservasjoner og -varsler.

For å forandre kartet kan du klikke på den grønne knappen med svart kryss for å zoome inn, på den grønne knappen med strek for å zoome ut, eller på de grønne pilene for å se tilstøtende kart.


METAR-TAF: